createdAt,value
2018-03-14T00:02:02.402Z,9.61
2018-03-14T00:04:30.771Z,9.62
2018-03-14T00:06:59.118Z,9.65
2018-03-14T00:09:27.656Z,9.63
2018-03-14T00:11:56.202Z,9.66
2018-03-14T00:14:24.564Z,9.67
2018-03-14T00:16:53.303Z,9.68
2018-03-14T00:19:21.654Z,9.76
2018-03-14T00:21:50.163Z,9.82
2018-03-14T00:24:18.491Z,9.89
2018-03-14T00:26:47.008Z,9.92
2018-03-14T00:29:15.397Z,9.93
2018-03-14T00:31:43.877Z,9.95
2018-03-14T00:34:12.225Z,9.83
2018-03-14T00:36:40.755Z,9.83
2018-03-14T00:39:09.084Z,9.73
2018-03-14T00:41:37.648Z,9.73
2018-03-14T00:44:06.161Z,9.71
2018-03-14T00:46:34.697Z,9.77
2018-03-14T00:49:03.225Z,9.80
2018-03-14T00:51:31.576Z,9.87
2018-03-14T00:54:00.103Z,9.88
2018-03-14T00:56:28.444Z,9.94
2018-03-14T00:58:56.972Z,9.94
2018-03-14T01:01:25.302Z,9.93
2018-03-14T01:03:53.640Z,9.90
2018-03-14T01:06:21.979Z,9.93
2018-03-14T01:08:50.313Z,9.87
2018-03-14T01:11:18.878Z,9.86
2018-03-14T01:13:47.401Z,9.95
2018-03-14T01:16:15.935Z,9.93
2018-03-14T01:18:44.293Z,9.93
2018-03-14T01:21:12.628Z,10.00
2018-03-14T01:23:40.987Z,10.00
2018-03-14T01:26:09.521Z,9.99
2018-03-14T01:28:37.842Z,10.03
2018-03-14T01:31:06.380Z,10.07
2018-03-14T01:33:34.948Z,10.01
2018-03-14T01:36:03.503Z,10.00
2018-03-14T01:38:31.842Z,10.00
2018-03-14T01:41:00.354Z,10.07
2018-03-14T01:43:28.719Z,10.08
2018-03-14T01:45:57.098Z,10.08
2018-03-14T01:48:25.493Z,10.07
2018-03-14T01:50:53.861Z,10.14
2018-03-14T01:53:28.684Z,10.15
2018-03-14T01:55:57.001Z,10.17
2018-03-14T01:58:25.324Z,10.11
2018-03-14T02:00:53.909Z,10.01
2018-03-14T02:03:22.430Z,10.04
2018-03-14T02:05:50.960Z,10.04
2018-03-14T02:08:19.290Z,10.03
2018-03-14T02:10:47.826Z,9.98
2018-03-14T02:13:16.377Z,9.93
2018-03-14T02:15:44.733Z,9.77
2018-03-14T02:18:13.259Z,9.79
2018-03-14T02:20:41.806Z,9.77
2018-03-14T02:23:10.324Z,9.81
2018-03-14T02:25:38.683Z,9.88
2018-03-14T02:28:07.204Z,9.94
2018-03-14T02:30:35.748Z,9.96
2018-03-14T02:33:04.292Z,10.00
2018-03-14T02:35:32.813Z,10.03
2018-03-14T02:38:01.187Z,10.04
2018-03-14T02:40:29.526Z,10.04
2018-03-14T02:42:57.867Z,10.06
2018-03-14T02:45:26.201Z,10.06
2018-03-14T02:47:54.523Z,10.05
2018-03-14T02:50:22.892Z,10.04
2018-03-14T02:52:51.237Z,10.11
2018-03-14T02:55:19.571Z,10.14
2018-03-14T02:57:47.925Z,10.14
2018-03-14T03:00:16.289Z,10.20
2018-03-14T03:02:44.611Z,10.10
2018-03-14T03:05:12.970Z,10.08
2018-03-14T03:07:41.307Z,9.99
2018-03-14T03:10:09.614Z,9.88
2018-03-14T03:12:38.532Z,9.73
2018-03-14T03:15:06.876Z,9.61
2018-03-14T03:17:35.194Z,9.43
2018-03-14T03:20:03.514Z,9.26
2018-03-14T03:22:31.826Z,9.10
2018-03-14T03:25:00.142Z,9.09
2018-03-14T03:27:28.443Z,9.17
2018-03-14T03:29:56.760Z,8.96
2018-03-14T03:32:25.102Z,9.04
2018-03-14T03:34:53.441Z,9.08
2018-03-14T03:37:21.793Z,9.09
2018-03-14T03:39:50.115Z,9.16
2018-03-14T03:42:18.438Z,9.23
2018-03-14T03:44:46.799Z,9.27
2018-03-14T03:47:15.167Z,9.25
2018-03-14T03:49:43.516Z,9.26
2018-03-14T03:52:11.833Z,9.29
2018-03-14T03:54:40.154Z,9.36
2018-03-14T03:57:08.457Z,9.38
2018-03-14T03:59:36.809Z,9.35
2018-03-14T04:02:05.170Z,9.42
2018-03-14T04:04:33.502Z,9.39
2018-03-14T04:07:01.863Z,9.43
2018-03-14T04:09:30.172Z,9.55
2018-03-14T04:11:58.513Z,9.57
2018-03-14T04:14:26.844Z,9.66
2018-03-14T04:16:55.181Z,9.63
2018-03-14T04:19:23.596Z,9.61
2018-03-14T04:21:51.932Z,9.61
2018-03-14T04:24:20.244Z,9.63
2018-03-14T04:26:48.599Z,9.67
2018-03-14T04:29:16.993Z,9.61
2018-03-14T04:31:45.331Z,9.61
2018-03-14T04:34:13.651Z,9.57
2018-03-14T04:36:42.003Z,9.51
2018-03-14T04:39:10.348Z,9.55
2018-03-14T04:41:38.665Z,9.48
2018-03-14T04:44:06.965Z,9.56
2018-03-14T04:46:35.310Z,9.62
2018-03-14T04:49:03.635Z,9.68
2018-03-14T04:51:31.954Z,9.74
2018-03-14T04:54:00.278Z,9.76
2018-03-14T04:56:28.668Z,9.70
2018-03-14T04:58:57.045Z,9.69
2018-03-14T05:01:25.369Z,9.74
2018-03-14T05:03:53.710Z,9.67
2018-03-14T05:06:22.051Z,9.68
2018-03-14T05:08:50.224Z,9.65
2018-03-14T05:11:18.630Z,9.60
2018-03-14T05:13:47.168Z,9.68
2018-03-14T05:16:15.517Z,9.74
2018-03-14T05:18:43.844Z,9.84
2018-03-14T05:21:12.176Z,9.87
2018-03-14T05:23:40.524Z,9.95
2018-03-14T05:26:08.875Z,10.02
2018-03-14T05:28:37.275Z,10.05
2018-03-14T05:31:05.997Z,10.11
2018-03-14T05:33:34.148Z,10.11
2018-03-14T05:36:02.520Z,10.21
2018-03-14T05:38:30.826Z,10.18
2018-03-14T05:40:59.137Z,10.19
2018-03-14T05:43:27.257Z,10.23
2018-03-14T05:45:55.598Z,10.25
2018-03-14T05:48:23.913Z,10.32
2018-03-14T05:50:52.424Z,10.19
2018-03-14T05:53:20.801Z,10.23
2018-03-14T05:55:49.284Z,10.26
2018-03-14T05:58:17.725Z,10.39
2018-03-14T06:00:46.093Z,10.42
2018-03-14T06:03:14.403Z,10.22
2018-03-14T06:05:42.717Z,10.17
2018-03-14T06:08:11.037Z,10.25
2018-03-14T06:10:39.374Z,10.38
2018-03-14T06:13:07.746Z,10.52
2018-03-14T06:15:36.078Z,10.58
2018-03-14T06:20:37.950Z,10.72
2018-03-14T06:23:06.275Z,10.76
2018-03-14T06:25:34.617Z,10.80
2018-03-14T06:28:02.952Z,10.90
2018-03-14T06:30:31.265Z,10.91
2018-03-14T06:32:59.584Z,11.01
2018-03-14T06:35:27.984Z,11.06
2018-03-14T06:37:56.318Z,11.01
2018-03-14T06:40:24.654Z,11.05
2018-03-14T06:42:53.000Z,11.13
2018-03-14T06:45:21.331Z,11.15
2018-03-14T06:47:49.638Z,11.17
2018-03-14T06:50:17.967Z,11.18
2018-03-14T06:53:06.336Z,11.16
2018-03-14T06:55:34.443Z,11.03
2018-03-14T06:58:02.774Z,10.99
2018-03-14T07:00:42.447Z,10.94
2018-03-14T07:03:21.990Z,10.81
2018-03-14T07:06:01.723Z,10.79
2018-03-14T07:08:30.075Z,10.63
2018-03-14T07:10:58.416Z,10.63
2018-03-14T07:13:26.959Z,10.70
2018-03-14T07:15:55.336Z,10.74
2018-03-14T07:18:23.652Z,10.83
2018-03-14T07:20:51.980Z,10.84
2018-03-14T07:23:20.323Z,10.85
2018-03-14T07:25:48.654Z,10.82
2018-03-14T07:28:16.975Z,10.79
2018-03-14T07:30:45.299Z,10.91
2018-03-14T07:33:13.641Z,10.96
2018-03-14T07:35:42.005Z,11.11
2018-03-14T07:38:10.341Z,11.22
2018-03-14T07:40:38.647Z,11.22
2018-03-14T07:43:06.980Z,11.22
2018-03-14T07:45:35.318Z,11.20
2018-03-14T07:48:03.669Z,11.38
2018-03-14T07:50:32.003Z,11.46
2018-03-14T07:53:00.356Z,11.51
2018-03-14T07:55:28.677Z,11.58
2018-03-14T07:57:57.006Z,11.65
2018-03-14T08:00:25.372Z,11.65
2018-03-14T08:02:53.712Z,11.63
2018-03-14T08:05:22.039Z,11.63
2018-03-14T08:07:50.360Z,11.37
2018-03-14T08:10:18.677Z,11.32
2018-03-14T08:12:47.032Z,11.60
2018-03-14T08:15:15.382Z,11.80
2018-03-14T08:17:43.747Z,11.75
2018-03-14T08:20:12.253Z,11.88
2018-03-14T08:22:40.564Z,11.58
2018-03-14T08:25:09.850Z,11.26
2018-03-14T08:27:38.173Z,11.30
2018-03-14T08:30:06.518Z,11.39
2018-03-14T08:32:34.821Z,11.53
2018-03-14T08:35:03.145Z,11.57
2018-03-14T08:37:31.525Z,11.52
2018-03-14T08:39:59.865Z,11.49
2018-03-14T08:42:28.201Z,11.39
2018-03-14T08:44:56.400Z,11.36
2018-03-14T08:47:24.721Z,10.91
2018-03-14T08:49:53.047Z,10.82
2018-03-14T08:52:21.358Z,10.78
2018-03-14T08:54:49.712Z,10.72
2018-03-14T08:57:18.035Z,10.55
2018-03-14T08:59:46.351Z,10.55
2018-03-14T09:02:14.661Z,10.55
2018-03-14T09:04:42.997Z,10.33
2018-03-14T09:07:11.314Z,10.34
2018-03-14T09:09:39.646Z,10.38
2018-03-14T09:12:08.009Z,10.43
2018-03-14T09:14:36.368Z,10.34
2018-03-14T09:17:04.709Z,10.36
2018-03-14T09:19:33.050Z,10.54
2018-03-14T09:22:13.810Z,10.49
2018-03-14T09:24:42.156Z,10.55
2018-03-14T09:27:10.481Z,10.45
2018-03-14T09:29:38.812Z,10.48
2018-03-14T09:32:07.152Z,10.52
2018-03-14T09:34:35.488Z,10.53
2018-03-14T09:37:03.811Z,10.60
2018-03-14T09:39:32.152Z,10.71
2018-03-14T09:42:00.493Z,10.69
2018-03-14T09:44:28.821Z,10.74
2018-03-14T09:46:57.121Z,10.86
2018-03-14T09:49:25.448Z,10.73
2018-03-14T09:51:53.783Z,10.83
2018-03-14T09:54:22.093Z,11.09
2018-03-14T09:56:50.549Z,11.18
2018-03-14T09:59:24.950Z,11.21
2018-03-14T10:01:53.262Z,10.94
2018-03-14T10:04:21.597Z,11.08
2018-03-14T10:06:50.028Z,11.37
2018-03-14T10:09:18.517Z,11.57
2018-03-14T10:11:46.845Z,11.29
2018-03-14T10:14:15.173Z,11.14
2018-03-14T10:16:43.488Z,11.24
2018-03-14T10:19:11.865Z,11.11
2018-03-14T10:21:40.380Z,11.11
2018-03-14T10:24:08.701Z,11.34
2018-03-14T10:26:37.042Z,11.56
2018-03-14T10:29:05.450Z,11.57
2018-03-14T10:31:33.808Z,11.65
2018-03-14T10:34:02.133Z,11.64
2018-03-14T10:36:30.492Z,11.57
2018-03-14T10:38:59.132Z,11.79
2018-03-14T10:41:27.506Z,11.76
2018-03-14T10:43:55.931Z,11.91
2018-03-14T10:46:24.258Z,12.00
2018-03-14T10:48:52.627Z,12.10
2018-03-14T10:51:20.960Z,12.23
2018-03-14T10:53:49.274Z,12.55
2018-03-14T10:56:17.587Z,12.61
2018-03-14T10:58:45.973Z,12.74
2018-03-14T11:01:14.273Z,12.63
2018-03-14T11:03:44.322Z,12.77
2018-03-14T11:06:12.689Z,12.64
2018-03-14T11:08:41.204Z,12.54
2018-03-14T11:11:09.539Z,12.25
2018-03-14T11:13:37.848Z,12.23
2018-03-14T11:16:06.168Z,12.41
2018-03-14T11:18:34.570Z,12.57
2018-03-14T11:21:02.879Z,12.68
2018-03-14T11:23:31.188Z,12.75
2018-03-14T11:25:59.490Z,12.65
2018-03-14T11:28:27.817Z,12.67
2018-03-14T11:30:56.132Z,12.63
2018-03-14T11:33:24.655Z,12.57
2018-03-14T11:35:52.974Z,12.56
2018-03-14T11:38:21.325Z,12.61
2018-03-14T11:40:49.669Z,12.76
2018-03-14T11:43:18.014Z,12.83
2018-03-14T11:45:46.357Z,12.81
2018-03-14T11:48:14.700Z,12.74
2018-03-14T11:50:43.049Z,12.85
2018-03-14T11:53:11.371Z,13.05
2018-03-14T11:55:39.708Z,13.11
2018-03-14T11:58:08.060Z,13.22
2018-03-14T12:00:36.387Z,13.17
2018-03-14T12:03:04.747Z,13.16
2018-03-14T12:05:33.123Z,13.23
2018-03-14T12:08:01.466Z,13.32
2018-03-14T12:10:29.775Z,13.21
2018-03-14T12:12:58.099Z,13.28
2018-03-14T12:15:26.451Z,13.42
2018-03-14T12:17:54.782Z,13.45
2018-03-14T12:20:23.097Z,13.47
2018-03-14T12:22:51.436Z,13.37
2018-03-14T12:25:19.751Z,13.21
2018-03-14T12:27:48.064Z,13.16
2018-03-14T12:30:16.422Z,13.26
2018-03-14T12:32:44.745Z,13.34
2018-03-14T12:35:13.084Z,13.44
2018-03-14T12:37:41.421Z,13.44
2018-03-14T12:40:09.740Z,13.60
2018-03-14T12:42:38.112Z,13.71
2018-03-14T12:45:06.610Z,13.82
2018-03-14T12:47:34.931Z,13.68
2018-03-14T12:50:03.253Z,13.47
2018-03-14T12:52:31.562Z,13.39
2018-03-14T12:54:59.912Z,13.38
2018-03-14T12:57:28.235Z,13.49
2018-03-14T12:59:56.580Z,13.38
2018-03-14T13:02:24.963Z,13.17
2018-03-14T13:04:53.270Z,13.13
2018-03-14T13:07:21.651Z,13.08
2018-03-14T13:09:50.022Z,13.10
2018-03-14T13:12:18.358Z,13.02
2018-03-14T13:14:46.669Z,13.00
2018-03-14T13:17:14.984Z,12.94
2018-03-14T13:19:43.305Z,12.85
2018-03-14T13:22:11.633Z,12.73
2018-03-14T13:24:39.997Z,12.74
2018-03-14T13:27:08.503Z,12.77
2018-03-14T13:29:38.530Z,12.75
2018-03-14T13:32:06.878Z,12.80
2018-03-14T13:34:35.226Z,12.84
2018-03-14T13:37:03.571Z,12.78
2018-03-14T13:39:31.899Z,12.72
2018-03-14T13:42:00.249Z,12.72
2018-03-14T13:44:28.582Z,12.74
2018-03-14T13:46:56.915Z,12.78
2018-03-14T13:49:25.237Z,12.80
2018-03-14T13:51:53.589Z,12.65
2018-03-14T13:54:21.905Z,12.65
2018-03-14T13:56:50.232Z,12.62
2018-03-14T13:59:18.590Z,12.60
2018-03-14T14:01:46.906Z,12.64
2018-03-14T14:04:15.233Z,12.68
2018-03-14T14:06:43.596Z,12.67
2018-03-14T14:09:11.932Z,12.67
2018-03-14T14:11:40.488Z,12.63
2018-03-14T14:14:08.842Z,12.60
2018-03-14T14:16:37.169Z,12.65
2018-03-14T14:19:05.041Z,12.70
2018-03-14T14:21:33.354Z,12.72
2018-03-14T14:24:01.684Z,12.75
2018-03-14T14:26:30.001Z,12.79
2018-03-14T14:28:58.370Z,12.83
2018-03-14T14:31:26.713Z,12.83
2018-03-14T14:33:55.045Z,12.86
2018-03-14T14:36:23.364Z,12.86
2018-03-14T14:38:51.729Z,12.84
2018-03-14T14:41:20.082Z,12.88
2018-03-14T14:43:48.402Z,12.89
2018-03-14T14:46:16.753Z,12.96
2018-03-14T14:48:45.112Z,13.01
2018-03-14T14:51:13.542Z,13.01
2018-03-14T14:53:41.922Z,13.03
2018-03-14T14:56:10.237Z,13.03
2018-03-14T14:58:38.569Z,13.03
2018-03-14T15:01:06.885Z,13.00
2018-03-14T15:03:35.297Z,13.05
2018-03-14T15:06:03.446Z,13.07
2018-03-14T15:08:31.895Z,13.10
2018-03-14T15:11:00.229Z,13.16
2018-03-14T15:13:28.554Z,13.23
2018-03-14T15:15:56.887Z,13.23
2018-03-14T15:18:25.229Z,13.24
2018-03-14T15:20:53.600Z,13.19
2018-03-14T15:23:22.061Z,13.12
2018-03-14T15:25:50.381Z,13.02
2018-03-14T15:28:18.754Z,13.03
2018-03-14T15:30:47.067Z,13.04
2018-03-14T15:33:15.406Z,13.06
2018-03-14T15:35:43.746Z,13.04
2018-03-14T15:38:12.086Z,13.00
2018-03-14T15:40:40.463Z,12.98
2018-03-14T15:43:08.961Z,12.92
2018-03-14T15:45:37.281Z,12.87
2018-03-14T15:48:05.635Z,12.84
2018-03-14T15:50:34.020Z,12.83
2018-03-14T15:53:02.344Z,12.80
2018-03-14T15:55:30.674Z,12.70
2018-03-14T15:57:59.021Z,12.62
2018-03-14T16:00:27.367Z,12.60
2018-03-14T16:02:55.690Z,12.59
2018-03-14T16:05:24.061Z,12.58
2018-03-14T16:07:52.389Z,12.59
2018-03-14T16:10:20.747Z,12.59
2018-03-14T16:12:49.121Z,12.58
2018-03-14T16:15:17.465Z,12.59
2018-03-14T16:17:45.779Z,12.56
2018-03-14T16:20:14.172Z,12.57
2018-03-14T16:22:42.526Z,12.55
2018-03-14T16:25:10.872Z,12.52
2018-03-14T16:27:39.306Z,12.51
2018-03-14T16:30:07.695Z,12.46
2018-03-14T16:32:36.028Z,12.49
2018-03-14T16:35:04.238Z,12.50
2018-03-14T16:37:32.671Z,12.49
2018-03-14T16:40:01.217Z,12.51
2018-03-14T16:42:29.665Z,12.44
2018-03-14T16:44:58.144Z,12.39
2018-03-14T16:47:26.520Z,12.34
2018-03-14T16:49:54.864Z,12.34
2018-03-14T16:52:23.200Z,12.31
2018-03-14T16:54:51.534Z,12.34
2018-03-14T16:57:19.854Z,12.37
2018-03-14T16:59:49.168Z,12.30
2018-03-14T17:02:17.524Z,12.24
